Terminal Aerodrome Forecast
Issued by NWS

Home | Current Version | Previous Version | Text Only | Print | Product List | Glossary On
Versions: 1 2 3 4 5 6 7 8 9 10 11 12 13 14
000
FTUS41 KLWX 271741
TAFMTN
TAF
KMTN 271741Z 2718/2818 28012KT P6SM BKN060
      TEMPO 2719/2722 29013G20KT
     FM280500 31008KT P6SM SCT050
     FM281200 33011G17KT P6SM SCT050=

USA.gov is the U.S. government's official web portal to all federal, state and local government web resources and services.